createdAt,value
2023-01-15T00:02:01.525Z,6.27
2023-01-15T00:06:58.911Z,6.42
2023-01-15T00:11:55.746Z,5.92
2023-01-15T00:16:52.367Z,6.03
2023-01-15T00:21:49.001Z,6.11
2023-01-15T00:27:16.059Z,6.14
2023-01-15T00:32:16.281Z,5.84
2023-01-15T00:37:13.050Z,5.83
2023-01-15T00:42:10.897Z,5.81
2023-01-15T00:47:08.687Z,5.88
2023-01-15T00:52:05.587Z,5.97
2023-01-15T00:57:02.195Z,5.97
2023-01-15T01:01:59.659Z,5.78
2023-01-15T01:06:56.681Z,5.68
2023-01-15T01:11:53.903Z,5.63
2023-01-15T01:16:51.789Z,5.74
2023-01-15T01:21:49.866Z,5.67
2023-01-15T01:26:48.779Z,5.47
2023-01-15T01:31:45.742Z,5.52
2023-01-15T01:36:43.947Z,5.57
2023-01-15T01:41:41.178Z,5.76
2023-01-15T01:46:37.789Z,5.73
2023-01-15T01:51:36.378Z,5.77
2023-01-15T01:56:34.547Z,5.90
2023-01-15T02:01:31.877Z,5.92
2023-01-15T02:06:28.902Z,5.78
2023-01-15T02:11:25.498Z,5.86
2023-01-15T02:16:24.087Z,5.84
2023-01-15T02:21:24.029Z,5.63
2023-01-15T02:26:29.928Z,5.70
2023-01-15T02:31:30.255Z,5.51
2023-01-15T02:36:28.570Z,5.58
2023-01-15T02:41:30.890Z,5.54
2023-01-15T02:46:30.859Z,5.72
2023-01-15T02:51:32.881Z,5.64
2023-01-15T02:56:32.081Z,5.61
2023-01-15T03:01:31.561Z,5.73
2023-01-15T03:06:33.312Z,5.77
2023-01-15T03:11:33.437Z,5.87
2023-01-15T03:16:37.499Z,6.11
2023-01-15T03:21:39.615Z,6.14
2023-01-15T03:26:36.298Z,6.18
2023-01-15T03:31:34.496Z,5.96
2023-01-15T03:36:31.315Z,5.98
2023-01-15T03:41:36.096Z,5.92
2023-01-15T03:46:46.676Z,6.16
2023-01-15T03:51:49.515Z,6.22
2023-01-15T03:56:54.905Z,6.32
2023-01-15T04:01:56.354Z,6.30
2023-01-15T04:06:54.586Z,6.12
2023-01-15T04:11:51.705Z,6.18
2023-01-15T04:16:49.026Z,6.21
2023-01-15T04:21:46.697Z,6.15
2023-01-15T04:26:43.250Z,6.30
2023-01-15T04:31:39.987Z,6.32
2023-01-15T04:36:36.649Z,6.04
2023-01-15T04:41:51.955Z,6.18
2023-01-15T04:46:48.549Z,6.27
2023-01-15T04:51:45.478Z,6.39
2023-01-15T04:56:43.950Z,6.59
2023-01-15T05:01:44.378Z,6.67
2023-01-15T05:06:45.351Z,6.65
2023-01-15T05:11:42.717Z,6.73
2023-01-15T05:16:39.372Z,6.74
2023-01-15T05:21:36.855Z,6.69
2023-01-15T05:26:33.550Z,6.52
2023-01-15T05:31:34.406Z,5.94
2023-01-15T05:36:31.332Z,6.05
2023-01-15T05:41:52.780Z,6.02
2023-01-15T05:46:50.384Z,5.81
2023-01-15T05:51:47.569Z,5.59
2023-01-15T05:56:45.335Z,5.71
2023-01-15T06:01:42.234Z,5.52
2023-01-15T06:06:40.150Z,5.30
2023-01-15T06:11:36.818Z,5.35
2023-01-15T06:16:33.679Z,5.10
2023-01-15T06:21:30.505Z,5.16
2023-01-15T06:26:27.851Z,5.01
2023-01-15T06:31:26.183Z,5.03
2023-01-15T06:36:23.922Z,5.28
2023-01-15T06:41:39.785Z,5.41
2023-01-15T06:46:55.263Z,5.77
2023-01-15T06:51:51.827Z,6.07
2023-01-15T06:56:48.404Z,5.86
2023-01-15T07:01:57.444Z,5.58
2023-01-15T07:06:54.490Z,5.95
2023-01-15T07:11:51.395Z,5.61
2023-01-15T07:16:51.744Z,5.45
2023-01-15T07:21:49.284Z,5.63
2023-01-15T07:26:46.057Z,5.78
2023-01-15T07:31:43.310Z,6.09
2023-01-15T07:36:40.142Z,5.76
2023-01-15T07:41:55.121Z,5.88
2023-01-15T07:47:10.094Z,5.79
2023-01-15T07:52:06.778Z,5.81
2023-01-15T07:57:04.194Z,5.88
2023-01-15T08:02:00.927Z,5.87
2023-01-15T08:06:58.883Z,5.89
2023-01-15T08:12:13.565Z,6.17
2023-01-15T08:17:10.792Z,6.22
2023-01-15T08:22:07.564Z,6.38
2023-01-15T08:27:04.360Z,6.45
2023-01-15T08:32:03.229Z,6.49
2023-01-15T08:37:00.823Z,6.60
2023-01-15T08:41:57.475Z,6.72
2023-01-15T08:46:54.083Z,6.87
2023-01-15T08:51:51.518Z,6.90
2023-01-15T08:56:49.419Z,7.01
2023-01-15T09:01:49.176Z,7.06
2023-01-15T09:06:45.960Z,7.15
2023-01-15T09:11:43.848Z,7.28
2023-01-15T09:16:42.536Z,7.35
2023-01-15T09:21:39.184Z,7.38
2023-01-15T09:26:36.761Z,7.36
2023-01-15T09:31:33.491Z,7.43
2023-01-15T09:36:31.738Z,7.45
2023-01-15T09:41:50.682Z,7.57
2023-01-15T09:46:52.187Z,7.63
2023-01-15T09:51:52.649Z,7.73
2023-01-15T09:56:49.232Z,7.78
2023-01-15T10:01:46.032Z,7.72
2023-01-15T10:06:45.549Z,7.82
2023-01-15T10:12:02.843Z,7.91
2023-01-15T10:17:08.516Z,7.96
2023-01-15T10:22:11.160Z,8.01
2023-01-15T10:27:13.805Z,7.97
2023-01-15T10:32:21.990Z,8.07
2023-01-15T10:37:22.756Z,8.09
2023-01-15T10:42:30.354Z,8.13
2023-01-15T10:47:30.825Z,8.17
2023-01-15T10:52:31.739Z,8.25
2023-01-15T10:57:36.748Z,8.27
2023-01-15T11:02:34.965Z,8.34
2023-01-15T11:07:36.540Z,8.38
2023-01-15T11:12:52.313Z,8.41
2023-01-15T11:18:07.278Z,8.42
2023-01-15T11:23:08.414Z,8.47
2023-01-15T11:28:06.707Z,8.53
2023-01-15T11:33:08.089Z,8.54
2023-01-15T11:38:05.981Z,8.65
2023-01-15T11:43:17.124Z,8.61
2023-01-15T11:48:33.994Z,8.70
2023-01-15T11:53:35.152Z,8.75
2023-01-15T11:58:39.590Z,8.75
2023-01-15T12:03:37.145Z,8.75
2023-01-15T12:08:39.989Z,8.66
2023-01-15T12:13:43.653Z,8.73
2023-01-15T12:18:53.137Z,8.82
2023-01-15T12:23:57.348Z,8.87
2023-01-15T12:28:57.905Z,8.72
2023-01-15T12:33:58.045Z,8.82
2023-01-15T12:38:58.467Z,9.02
2023-01-15T12:44:14.665Z,8.99
2023-01-15T12:49:25.799Z,9.02
2023-01-15T12:54:26.034Z,8.77
2023-01-15T12:59:24.702Z,8.81
2023-01-15T13:04:23.769Z,8.86
2023-01-15T13:09:28.844Z,8.92
2023-01-15T13:14:25.839Z,8.99
2023-01-15T13:19:31.375Z,8.99
2023-01-15T13:24:38.135Z,8.95
2023-01-15T13:29:39.367Z,9.00
2023-01-15T13:34:43.665Z,9.03
2023-01-15T13:39:46.308Z,9.03
2023-01-15T13:44:47.035Z,9.02
2023-01-15T13:49:48.264Z,9.02
2023-01-15T13:54:45.172Z,8.94
2023-01-15T13:59:43.190Z,8.91
2023-01-15T14:04:39.900Z,8.93
2023-01-15T14:09:39.224Z,8.93
2023-01-15T14:20:33.677Z,8.90
2023-01-15T14:25:44.821Z,8.89
2023-01-15T14:31:17.820Z,8.84
2023-01-15T14:36:18.767Z,8.86
2023-01-15T14:41:18.084Z,8.88
2023-01-15T14:46:24.311Z,8.91
2023-01-15T14:51:29.965Z,8.72
2023-01-15T14:56:29.778Z,8.74
2023-01-15T15:01:49.723Z,8.70
2023-01-15T15:06:51.240Z,8.60
2023-01-15T15:12:07.957Z,8.67
2023-01-15T15:17:07.107Z,8.54
2023-01-15T15:22:05.920Z,8.65
2023-01-15T15:27:15.477Z,8.63
2023-01-15T15:32:14.802Z,8.55
2023-01-15T15:37:14.860Z,8.44
2023-01-15T15:42:35.119Z,8.62
2023-01-15T15:47:55.226Z,8.45
2023-01-15T15:52:52.304Z,8.48
2023-01-15T15:57:52.847Z,8.52
2023-01-15T16:02:49.565Z,8.58
2023-01-15T16:07:46.870Z,8.52
2023-01-15T16:12:45.367Z,8.54
2023-01-15T16:17:44.116Z,8.55
2023-01-15T16:22:44.408Z,8.49
2023-01-15T16:27:41.150Z,8.54
2023-01-15T16:32:38.748Z,8.54
2023-01-15T16:37:36.215Z,8.51
2023-01-15T16:42:34.524Z,8.52
2023-01-15T16:47:32.699Z,8.39
2023-01-15T16:52:45.557Z,8.18
2023-01-15T16:57:45.185Z,8.22
2023-01-15T17:02:44.187Z,8.16
2023-01-15T17:07:41.525Z,8.18
2023-01-15T17:12:39.030Z,8.21
2023-01-15T17:17:35.655Z,8.16
2023-01-15T17:22:33.448Z,8.17
2023-01-15T17:27:30.780Z,8.07
2023-01-15T17:32:30.843Z,8.04
2023-01-15T17:37:27.641Z,8.09
2023-01-15T17:42:24.281Z,8.09
2023-01-15T17:47:21.652Z,8.17
2023-01-15T17:52:18.766Z,8.12
2023-01-15T17:57:35.979Z,8.07
2023-01-15T18:02:52.106Z,8.00
2023-01-15T18:07:48.867Z,7.94
2023-01-15T18:12:46.086Z,7.96
2023-01-15T18:17:43.346Z,7.99
2023-01-15T18:22:39.964Z,8.04
2023-01-15T18:27:42.178Z,7.86
2023-01-15T18:32:38.919Z,7.85
2023-01-15T18:37:36.264Z,7.70
2023-01-15T18:42:50.903Z,7.62
2023-01-15T18:47:47.510Z,7.66
2023-01-15T18:52:50.531Z,7.53
2023-01-15T18:57:49.718Z,7.43
2023-01-15T19:02:46.300Z,7.39
2023-01-15T19:07:43.343Z,7.44
2023-01-15T19:12:40.673Z,7.31
2023-01-15T19:17:55.528Z,7.35
2023-01-15T19:23:04.124Z,7.34
2023-01-15T19:28:02.924Z,7.21
2023-01-15T19:32:59.587Z,7.25
2023-01-15T19:37:56.119Z,7.18
2023-01-15T19:43:13.687Z,7.40
2023-01-15T19:48:33.263Z,7.42
2023-01-15T19:53:29.874Z,7.46
2023-01-15T19:58:27.910Z,7.60
2023-01-15T20:03:25.896Z,7.16
2023-01-15T20:08:22.542Z,7.27
2023-01-15T20:13:38.432Z,7.42
2023-01-15T20:18:35.831Z,7.49
2023-01-15T20:23:32.487Z,7.39
2023-01-15T20:28:29.216Z,7.50
2023-01-15T20:33:26.237Z,7.47
2023-01-15T20:38:23.535Z,7.47
2023-01-15T20:43:38.222Z,7.45
2023-01-15T20:48:53.119Z,7.18
2023-01-15T20:53:52.588Z,7.29
2023-01-15T20:58:50.935Z,7.32
2023-01-15T21:03:47.679Z,7.30
2023-01-15T21:08:45.344Z,7.29
2023-01-15T21:13:45.295Z,7.22
2023-01-15T21:18:44.560Z,7.29
2023-01-15T21:23:44.826Z,7.29
2023-01-15T21:28:43.637Z,7.18
2023-01-15T21:33:40.419Z,7.15
2023-01-15T21:38:37.019Z,7.13
2023-01-15T21:43:51.687Z,7.21
2023-01-15T21:48:50.425Z,7.17
2023-01-15T21:53:46.944Z,7.12
2023-01-15T21:58:43.561Z,7.13
2023-01-15T22:03:40.498Z,7.09
2023-01-15T22:08:37.968Z,7.13
2023-01-15T22:13:35.256Z,7.17
2023-01-15T22:18:32.609Z,7.21
2023-01-15T22:23:29.280Z,7.10
2023-01-15T22:28:26.529Z,7.16
2023-01-15T22:33:23.109Z,7.18
2023-01-15T22:38:19.669Z,7.13
2023-01-15T22:43:16.638Z,7.19
2023-01-15T22:48:13.955Z,7.17
2023-01-15T22:53:13.119Z,7.18
2023-01-15T22:58:09.739Z,7.19
2023-01-15T23:03:06.425Z,7.24
2023-01-15T23:08:03.762Z,7.31
2023-01-15T23:13:00.401Z,7.34
2023-01-15T23:17:57.055Z,7.42
2023-01-15T23:22:53.807Z,7.48
2023-01-15T23:27:51.087Z,7.50
2023-01-15T23:32:47.783Z,7.40
2023-01-15T23:37:44.301Z,7.38
2023-01-15T23:43:04.630Z,7.31
2023-01-15T23:48:02.177Z,7.20
2023-01-15T23:52:58.786Z,7.19
2023-01-15T23:57:58.006Z,7.28
